createdAt,value
2018-12-31T00:01:00.391Z,34.60
2018-12-31T00:03:27.464Z,43.87
2018-12-31T00:05:54.188Z,28.23
2018-12-31T00:08:20.911Z,40.10
2018-12-31T00:10:47.993Z,28.03
2018-12-31T00:13:14.695Z,23.00
2018-12-31T00:15:41.419Z,30.03
2018-12-31T00:18:08.143Z,33.97
2018-12-31T00:20:34.861Z,48.90
2018-12-31T00:23:01.591Z,44.50
2018-12-31T00:25:28.320Z,47.83
2018-12-31T00:27:55.040Z,31.53
2018-12-31T00:30:24.329Z,29.83
2018-12-31T00:32:51.024Z,33.53
2018-12-31T00:35:17.775Z,30.07
2018-12-31T00:37:44.503Z,35.23
2018-12-31T00:40:11.235Z,34.67
2018-12-31T00:42:37.969Z,34.43
2018-12-31T00:45:04.916Z,35.77
2018-12-31T00:47:31.648Z,28.43
2018-12-31T00:49:58.364Z,29.70
2018-12-31T00:52:25.332Z,18.97
2018-12-31T00:54:52.055Z,26.40
2018-12-31T00:57:18.773Z,27.90
2018-12-31T00:59:45.523Z,20.83
2018-12-31T01:02:12.329Z,32.93
2018-12-31T01:04:39.424Z,23.77
2018-12-31T01:07:06.142Z,32.53
2018-12-31T01:09:32.869Z,28.63
2018-12-31T01:11:59.586Z,30.87
2018-12-31T01:14:26.296Z,36.47
2018-12-31T01:16:53.012Z,26.73
2018-12-31T01:19:19.719Z,30.50
2018-12-31T01:21:46.487Z,31.83
2018-12-31T01:24:13.205Z,31.17
2018-12-31T01:26:39.920Z,42.23
2018-12-31T01:29:26.265Z,30.07
2018-12-31T01:31:52.975Z,24.37
2018-12-31T01:34:19.687Z,31.13
2018-12-31T01:36:46.387Z,39.03
2018-12-31T01:39:13.095Z,37.03
2018-12-31T01:41:41.736Z,31.07
2018-12-31T01:44:08.487Z,31.07
2018-12-31T01:46:35.205Z,34.60
2018-12-31T01:49:01.930Z,29.13
2018-12-31T01:51:28.640Z,30.90
2018-12-31T01:53:55.355Z,33.33
2018-12-31T01:56:22.080Z,46.10
2018-12-31T01:58:48.779Z,36.57
2018-12-31T02:01:15.494Z,27.20
2018-12-31T02:03:42.200Z,29.47
2018-12-31T02:06:08.923Z,18.50
2018-12-31T02:08:35.624Z,23.80
2018-12-31T02:11:02.341Z,34.93
2018-12-31T02:13:29.393Z,45.70
2018-12-31T02:15:56.104Z,31.23
2018-12-31T02:18:22.843Z,31.70
2018-12-31T02:20:49.551Z,23.10
2018-12-31T02:23:16.272Z,24.53
2018-12-31T02:25:42.990Z,27.50
2018-12-31T02:28:09.699Z,28.30
2018-12-31T02:30:36.625Z,29.67
2018-12-31T02:33:03.341Z,25.83
2018-12-31T02:35:30.143Z,18.37
2018-12-31T02:37:56.851Z,20.13
2018-12-31T02:40:23.556Z,21.27
2018-12-31T02:42:50.335Z,30.43
2018-12-31T02:45:17.063Z,19.43
2018-12-31T02:47:43.879Z,32.80
2018-12-31T02:50:10.616Z,30.40
2018-12-31T02:52:37.396Z,22.50
2018-12-31T02:55:04.323Z,28.53
2018-12-31T02:57:31.027Z,25.23
2018-12-31T02:59:59.071Z,33.30
2018-12-31T03:02:26.064Z,24.57
2018-12-31T03:04:52.764Z,25.07
2018-12-31T03:07:19.470Z,30.43
2018-12-31T03:09:46.189Z,26.13
2018-12-31T03:12:12.897Z,32.03
2018-12-31T03:14:39.612Z,43.80
2018-12-31T03:17:06.391Z,26.03
2018-12-31T03:19:33.183Z,27.43
2018-12-31T03:21:59.890Z,41.17
2018-12-31T03:24:26.603Z,35.43
2018-12-31T03:26:53.326Z,38.20
2018-12-31T03:29:20.028Z,28.90
2018-12-31T03:31:46.757Z,42.03
2018-12-31T03:34:13.475Z,45.83
2018-12-31T03:36:40.204Z,31.27
2018-12-31T03:39:06.928Z,41.40
2018-12-31T03:41:33.642Z,53.50
2018-12-31T03:44:00.355Z,36.30
2018-12-31T03:46:27.074Z,37.90
2018-12-31T03:48:53.813Z,60.77
2018-12-31T03:51:20.724Z,41.87
2018-12-31T03:53:47.443Z,60.60
2018-12-31T03:56:14.176Z,56.60
2018-12-31T03:58:40.940Z,49.13
2018-12-31T04:01:07.755Z,43.30
2018-12-31T04:03:34.475Z,51.10
2018-12-31T04:06:01.208Z,56.50
2018-12-31T04:08:27.961Z,69.57
2018-12-31T04:10:54.675Z,76.83
2018-12-31T04:13:21.405Z,62.93
2018-12-31T04:15:48.121Z,66.43
2018-12-31T04:18:14.841Z,72.77
2018-12-31T04:20:41.558Z,61.00
2018-12-31T04:23:08.290Z,76.10
2018-12-31T04:25:35.016Z,73.70
2018-12-31T04:28:01.767Z,66.93
2018-12-31T04:30:28.477Z,75.10
2018-12-31T04:32:55.562Z,69.30
2018-12-31T04:35:22.256Z,72.10
2018-12-31T04:37:49.199Z,72.93
2018-12-31T04:40:15.910Z,76.90
2018-12-31T04:42:42.633Z,79.07
2018-12-31T04:45:09.353Z,52.53
2018-12-31T04:47:36.107Z,76.37
2018-12-31T04:50:03.617Z,80.87
2018-12-31T04:52:30.332Z,72.97
2018-12-31T04:54:57.053Z,97.33
2018-12-31T04:57:23.768Z,103.50
2018-12-31T04:59:50.488Z,60.43
2018-12-31T05:02:17.204Z,70.53
2018-12-31T05:04:43.919Z,88.37
2018-12-31T05:07:10.656Z,70.43
2018-12-31T05:09:37.388Z,53.40
2018-12-31T05:12:04.118Z,102.47
2018-12-31T05:14:30.869Z,60.13
2018-12-31T05:16:57.582Z,69.03
2018-12-31T05:19:24.301Z,60.67
2018-12-31T05:21:51.028Z,68.77
2018-12-31T05:24:18.231Z,79.73
2018-12-31T05:26:44.956Z,67.93
2018-12-31T05:29:11.683Z,71.60
2018-12-31T05:31:38.397Z,64.77
2018-12-31T05:34:05.099Z,49.47
2018-12-31T05:36:31.812Z,60.00
2018-12-31T05:38:58.532Z,69.13
2018-12-31T05:41:25.261Z,65.07
2018-12-31T05:43:51.999Z,55.33
2018-12-31T05:46:18.697Z,56.40
2018-12-31T05:48:45.411Z,60.10
2018-12-31T05:51:12.118Z,65.80
2018-12-31T05:53:38.851Z,54.93
2018-12-31T05:56:05.583Z,66.87
2018-12-31T05:58:32.420Z,54.30
2018-12-31T06:00:59.153Z,49.80
2018-12-31T06:03:25.888Z,58.23
2018-12-31T06:05:52.604Z,79.23
2018-12-31T06:08:19.387Z,79.63
2018-12-31T06:10:46.274Z,66.00
2018-12-31T06:13:13.032Z,74.43
2018-12-31T06:15:40.280Z,73.93
2018-12-31T06:18:06.989Z,55.73
2018-12-31T06:20:33.716Z,50.83
2018-12-31T06:23:00.468Z,79.93
2018-12-31T06:25:27.203Z,64.23
2018-12-31T06:27:53.917Z,77.40
2018-12-31T06:30:21.718Z,75.57
2018-12-31T06:32:48.511Z,70.47
2018-12-31T06:35:15.217Z,61.37
2018-12-31T06:37:42.276Z,59.20
2018-12-31T06:40:09.003Z,74.23
2018-12-31T06:42:35.722Z,90.20
2018-12-31T06:45:02.653Z,60.13
2018-12-31T06:47:29.375Z,58.43
2018-12-31T06:49:56.094Z,73.90
2018-12-31T06:52:22.833Z,81.50
2018-12-31T06:54:49.552Z,54.20
2018-12-31T06:57:16.276Z,68.50
2018-12-31T06:59:43.024Z,59.97
2018-12-31T07:02:09.748Z,54.03
2018-12-31T07:04:36.739Z,72.93
2018-12-31T07:07:03.468Z,70.73
2018-12-31T07:09:30.183Z,64.50
2018-12-31T07:11:56.905Z,77.57
2018-12-31T07:14:23.628Z,75.53
2018-12-31T07:16:50.456Z,63.03
2018-12-31T07:19:17.176Z,65.63
2018-12-31T07:21:43.905Z,55.90
2018-12-31T07:24:11.076Z,64.60
2018-12-31T07:26:37.796Z,61.07
2018-12-31T07:29:04.545Z,63.47
2018-12-31T07:31:31.812Z,67.20
2018-12-31T07:33:58.527Z,63.93
2018-12-31T07:36:25.251Z,62.10
2018-12-31T07:38:51.968Z,69.73
2018-12-31T07:41:18.697Z,68.30
2018-12-31T07:43:45.441Z,62.13
2018-12-31T07:46:12.144Z,62.50
2018-12-31T07:48:38.853Z,62.70
2018-12-31T07:51:05.567Z,58.47
2018-12-31T07:53:32.279Z,64.37
2018-12-31T07:55:59.242Z,69.07
2018-12-31T07:58:26.077Z,54.93
2018-12-31T08:00:52.787Z,69.20
2018-12-31T08:03:19.523Z,63.83
2018-12-31T08:05:46.351Z,61.00
2018-12-31T08:08:13.417Z,83.07
2018-12-31T08:10:40.256Z,60.40
2018-12-31T08:13:06.987Z,71.10
2018-12-31T08:15:33.728Z,63.87
2018-12-31T08:18:00.463Z,53.03
2018-12-31T08:20:27.292Z,47.80
2018-12-31T08:22:54.032Z,45.00
2018-12-31T08:25:20.751Z,62.40
2018-12-31T08:27:47.573Z,57.63
2018-12-31T08:30:18.887Z,66.13
2018-12-31T08:32:45.803Z,62.53
2018-12-31T08:35:12.531Z,55.20
2018-12-31T08:37:39.280Z,61.17
2018-12-31T08:40:05.981Z,60.43
2018-12-31T08:42:32.714Z,61.13
2018-12-31T08:44:59.431Z,58.80
2018-12-31T08:47:26.173Z,54.30
2018-12-31T08:49:52.941Z,62.63
2018-12-31T08:52:19.663Z,60.50
2018-12-31T08:54:46.384Z,64.10
2018-12-31T08:57:13.125Z,54.53
2018-12-31T08:59:39.848Z,57.40
2018-12-31T09:02:06.578Z,54.97
2018-12-31T09:04:33.313Z,61.50
2018-12-31T09:07:00.036Z,56.30
2018-12-31T09:09:26.763Z,65.83
2018-12-31T09:11:53.482Z,66.10
2018-12-31T09:14:20.210Z,53.27
2018-12-31T09:16:46.947Z,61.57
2018-12-31T09:19:13.649Z,61.10
2018-12-31T09:21:41.164Z,59.47
2018-12-31T09:24:07.886Z,59.27
2018-12-31T09:26:34.625Z,66.70
2018-12-31T09:29:01.361Z,62.67
2018-12-31T09:31:28.084Z,61.67
2018-12-31T09:33:54.795Z,61.70
2018-12-31T09:36:21.523Z,56.33
2018-12-31T09:38:48.280Z,58.03
2018-12-31T09:41:15.009Z,61.23
2018-12-31T09:43:41.749Z,63.03
2018-12-31T09:46:08.476Z,53.27
2018-12-31T09:48:35.308Z,54.47
2018-12-31T09:51:02.472Z,59.80
2018-12-31T09:53:29.207Z,50.70
2018-12-31T09:55:55.920Z,52.97
2018-12-31T09:58:22.723Z,53.07
2018-12-31T10:00:49.475Z,58.73
2018-12-31T10:03:16.207Z,52.60
2018-12-31T10:05:42.936Z,55.63
2018-12-31T10:08:09.659Z,56.43
2018-12-31T10:10:36.393Z,58.23
2018-12-31T10:13:03.140Z,56.90
2018-12-31T10:15:29.884Z,55.37
2018-12-31T10:17:56.616Z,54.77
2018-12-31T10:20:23.589Z,53.83
2018-12-31T10:22:50.303Z,51.70
2018-12-31T10:25:17.041Z,62.60
2018-12-31T10:27:43.759Z,50.17
2018-12-31T10:30:14.331Z,43.37
2018-12-31T10:48:41.728Z,44.90
2018-12-31T10:51:08.452Z,41.50
2018-12-31T10:53:35.220Z,40.47
2018-12-31T10:56:01.937Z,48.33
2018-12-31T10:58:28.679Z,43.53
2018-12-31T11:00:55.407Z,50.57
2018-12-31T11:03:22.128Z,49.03
2018-12-31T11:05:48.860Z,46.53
2018-12-31T11:08:15.588Z,42.07
2018-12-31T11:10:42.304Z,52.53
2018-12-31T11:13:09.020Z,46.13
2018-12-31T11:15:35.744Z,43.40
2018-12-31T11:18:02.478Z,45.03
2018-12-31T11:20:29.204Z,47.37
2018-12-31T11:22:56.155Z,45.30
2018-12-31T11:25:22.892Z,37.40
2018-12-31T11:27:49.972Z,40.37
2018-12-31T11:30:20.715Z,47.83
2018-12-31T11:32:47.512Z,46.00
2018-12-31T11:35:14.253Z,45.00
2018-12-31T11:37:40.984Z,36.27
2018-12-31T11:40:07.720Z,45.30
2018-12-31T11:42:34.484Z,41.20
2018-12-31T11:45:01.305Z,47.43
2018-12-31T11:47:28.043Z,45.13
2018-12-31T11:50:14.396Z,42.87
2018-12-31T11:52:41.116Z,45.53
2018-12-31T11:55:07.825Z,48.60
2018-12-31T11:57:34.538Z,43.23
2018-12-31T12:00:01.376Z,45.97
2018-12-31T12:02:28.094Z,50.50
2018-12-31T12:04:54.822Z,40.37
2018-12-31T12:07:21.651Z,46.07
2018-12-31T12:09:48.373Z,43.90
2018-12-31T12:12:15.347Z,44.00
2018-12-31T12:14:42.069Z,42.53
2018-12-31T12:17:08.799Z,44.13
2018-12-31T12:19:35.538Z,52.63
2018-12-31T12:22:02.277Z,48.27
2018-12-31T12:24:29.220Z,51.50
2018-12-31T12:26:55.948Z,46.43
2018-12-31T12:29:22.655Z,46.50
2018-12-31T12:31:49.396Z,47.57
2018-12-31T12:34:16.208Z,48.20
2018-12-31T12:36:42.930Z,49.00
2018-12-31T12:39:09.980Z,47.20
2018-12-31T12:41:36.937Z,46.73
2018-12-31T12:44:03.670Z,50.77
2018-12-31T12:46:30.452Z,48.00
2018-12-31T12:48:57.173Z,43.17
2018-12-31T12:51:23.897Z,48.93
2018-12-31T12:53:50.619Z,41.77
2018-12-31T12:56:17.945Z,49.27
2018-12-31T12:58:44.768Z,48.57
2018-12-31T13:01:11.513Z,45.37
2018-12-31T13:03:38.227Z,51.33
2018-12-31T13:06:05.461Z,45.10
2018-12-31T13:08:32.180Z,42.93
2018-12-31T13:10:59.204Z,42.77
2018-12-31T13:13:25.952Z,44.20
2018-12-31T13:15:52.675Z,39.77
2018-12-31T13:18:19.391Z,43.70
2018-12-31T13:20:46.121Z,42.53
2018-12-31T13:23:12.821Z,38.47
2018-12-31T13:25:40.050Z,47.03
2018-12-31T13:28:06.776Z,49.07
2018-12-31T13:30:34.211Z,51.17
2018-12-31T13:33:01.337Z,49.27
2018-12-31T13:35:47.692Z,49.67
2018-12-31T13:38:14.404Z,49.60
2018-12-31T13:40:41.108Z,50.90
2018-12-31T13:43:07.945Z,47.40
2018-12-31T13:45:34.656Z,46.73
2018-12-31T13:48:01.377Z,50.87
2018-12-31T13:50:28.534Z,47.53
2018-12-31T13:52:55.244Z,49.13
2018-12-31T13:55:21.970Z,51.60
2018-12-31T13:57:48.683Z,42.93
2018-12-31T14:00:15.412Z,41.40
2018-12-31T14:02:42.140Z,46.20
2018-12-31T14:05:09.544Z,45.90
2018-12-31T14:07:36.272Z,43.97
2018-12-31T14:10:04.157Z,45.00
2018-12-31T14:12:30.876Z,48.77
2018-12-31T14:14:57.589Z,43.23
2018-12-31T14:17:24.304Z,44.77
2018-12-31T14:19:51.425Z,41.83
2018-12-31T14:22:18.199Z,44.40
2018-12-31T14:24:44.956Z,43.47
2018-12-31T14:27:11.707Z,45.07
2018-12-31T14:29:38.433Z,47.23
2018-12-31T14:32:05.159Z,50.80
2018-12-31T14:34:32.286Z,46.45
2018-12-31T14:36:58.996Z,44.27
2018-12-31T14:39:25.710Z,47.77
2018-12-31T14:41:52.426Z,46.20
2018-12-31T14:44:19.162Z,48.43
2018-12-31T14:46:45.880Z,43.27
2018-12-31T14:49:12.739Z,48.90
2018-12-31T14:51:39.584Z,43.80
2018-12-31T14:54:06.301Z,43.60
2018-12-31T14:56:33.122Z,35.23
2018-12-31T14:58:59.849Z,41.63
2018-12-31T15:01:26.609Z,39.10
2018-12-31T15:03:53.341Z,43.67
2018-12-31T15:06:20.071Z,42.47
2018-12-31T15:08:46.792Z,45.27
2018-12-31T15:11:13.574Z,47.80
2018-12-31T15:13:40.356Z,49.27
2018-12-31T15:16:07.171Z,46.47
2018-12-31T15:18:33.977Z,49.17
2018-12-31T15:21:00.729Z,52.03
2018-12-31T15:23:27.456Z,49.70
2018-12-31T15:25:54.292Z,43.10
2018-12-31T15:28:21.015Z,45.37
2018-12-31T15:30:47.848Z,42.17
2018-12-31T15:33:14.987Z,40.93
2018-12-31T15:35:41.720Z,42.87
2018-12-31T15:38:08.436Z,35.10
2018-12-31T15:40:35.151Z,31.53
2018-12-31T15:43:01.892Z,32.13
2018-12-31T15:45:28.618Z,32.27
2018-12-31T15:47:55.350Z,32.73
2018-12-31T15:50:22.075Z,32.90
2018-12-31T15:52:48.822Z,29.50
2018-12-31T15:55:15.543Z,30.60
2018-12-31T15:57:42.299Z,32.47
2018-12-31T16:00:09.528Z,30.17
2018-12-31T16:02:36.262Z,34.17
2018-12-31T16:05:03.483Z,31.97
2018-12-31T16:07:30.208Z,32.70
2018-12-31T16:09:56.948Z,30.90
2018-12-31T16:12:23.699Z,33.47
2018-12-31T16:14:50.419Z,30.27
2018-12-31T16:17:17.155Z,30.80
2018-12-31T16:19:43.972Z,30.43
2018-12-31T16:22:10.692Z,29.23
2018-12-31T16:24:37.410Z,25.43
2018-12-31T16:27:04.135Z,30.87
2018-12-31T16:29:30.856Z,25.97
2018-12-31T16:31:57.584Z,30.67
2018-12-31T16:34:24.308Z,30.60
2018-12-31T16:36:51.048Z,29.57
2018-12-31T16:39:17.784Z,31.70
2018-12-31T16:41:44.492Z,31.53
2018-12-31T16:44:11.215Z,32.70
2018-12-31T16:46:38.428Z,31.53
2018-12-31T16:49:05.155Z,31.63
2018-12-31T16:51:31.865Z,33.40
2018-12-31T16:53:58.605Z,33.27
2018-12-31T16:56:25.331Z,36.63
2018-12-31T16:58:52.052Z,37.27
2018-12-31T17:01:19.368Z,35.50
2018-12-31T17:03:46.089Z,38.43
2018-12-31T17:06:12.803Z,37.83
2018-12-31T17:08:39.518Z,35.07
2018-12-31T17:11:06.232Z,42.23
2018-12-31T17:13:32.952Z,42.97
2018-12-31T17:15:59.660Z,44.03
2018-12-31T17:18:26.364Z,48.83
2018-12-31T17:20:53.192Z,47.70
2018-12-31T17:23:19.928Z,58.50
2018-12-31T17:25:46.660Z,63.23
2018-12-31T17:28:13.375Z,71.00
2018-12-31T17:30:40.087Z,81.53
2018-12-31T17:33:06.804Z,91.13
2018-12-31T17:35:33.520Z,104.93
2018-12-31T17:38:00.243Z,85.10
2018-12-31T17:40:26.961Z,89.77
2018-12-31T17:42:53.686Z,58.60
2018-12-31T17:45:23.218Z,63.07
2018-12-31T17:47:49.032Z,73.30
2018-12-31T17:50:15.747Z,81.70
2018-12-31T17:52:42.481Z,72.00
2018-12-31T17:55:09.199Z,72.57
2018-12-31T17:57:35.921Z,73.93
2018-12-31T18:00:04.172Z,65.87
2018-12-31T18:02:30.892Z,58.23
2018-12-31T18:04:57.719Z,72.00
2018-12-31T18:07:24.444Z,62.90
2018-12-31T18:09:51.197Z,62.97
2018-12-31T18:12:17.991Z,60.37
2018-12-31T18:14:44.718Z,66.83
2018-12-31T18:17:11.448Z,61.13
2018-12-31T18:19:38.266Z,70.80
2018-12-31T18:22:05.387Z,61.90
2018-12-31T18:24:32.371Z,60.93
2018-12-31T18:26:59.088Z,52.37
2018-12-31T18:29:25.912Z,54.03
2018-12-31T18:31:52.980Z,51.80
2018-12-31T18:34:20.239Z,50.63
2018-12-31T18:36:47.091Z,54.77
2018-12-31T18:39:13.815Z,54.03
2018-12-31T18:41:40.519Z,50.90
2018-12-31T18:44:07.234Z,44.90
2018-12-31T18:46:34.195Z,40.60
2018-12-31T18:49:00.932Z,44.33
2018-12-31T18:51:27.657Z,45.77
2018-12-31T18:53:54.368Z,42.77
2018-12-31T18:56:21.084Z,48.37
2018-12-31T18:58:48.444Z,47.27
2018-12-31T19:01:15.163Z,57.20
2018-12-31T19:03:41.907Z,53.27
2018-12-31T19:06:08.638Z,64.40
2018-12-31T19:08:35.372Z,60.37
2018-12-31T19:11:02.331Z,54.13
2018-12-31T19:13:29.047Z,63.43
2018-12-31T19:15:55.980Z,65.27
2018-12-31T19:18:22.696Z,58.30
2018-12-31T19:20:49.415Z,57.30
2018-12-31T19:23:16.385Z,51.17
2018-12-31T19:25:43.119Z,47.80
2018-12-31T19:28:09.832Z,55.77
2018-12-31T19:30:36.956Z,52.10
2018-12-31T19:33:03.695Z,54.27
2018-12-31T19:35:30.419Z,56.53
2018-12-31T19:37:57.143Z,55.37
2018-12-31T19:40:23.868Z,54.80
2018-12-31T19:42:50.616Z,73.63
2018-12-31T19:45:18.288Z,54.00
2018-12-31T19:47:45.004Z,59.10
2018-12-31T19:50:12.145Z,53.37
2018-12-31T19:52:38.863Z,54.53
2018-12-31T19:55:07.075Z,57.57
2018-12-31T19:57:34.119Z,58.83
2018-12-31T20:00:01.139Z,45.93
2018-12-31T20:02:27.869Z,44.10
2018-12-31T20:04:54.620Z,39.77
2018-12-31T20:07:21.388Z,39.33
2018-12-31T20:09:48.123Z,42.40
2018-12-31T20:12:14.844Z,41.40
2018-12-31T20:14:41.687Z,41.40
2018-12-31T20:17:08.423Z,37.00
2018-12-31T20:19:35.143Z,41.43
2018-12-31T20:22:01.869Z,42.23
2018-12-31T20:24:28.647Z,43.13
2018-12-31T20:26:55.366Z,37.93
2018-12-31T20:29:22.100Z,40.87
2018-12-31T20:31:49.127Z,42.73
2018-12-31T20:34:15.835Z,36.83
2018-12-31T20:36:42.550Z,40.07
2018-12-31T20:39:09.264Z,37.60
2018-12-31T20:41:35.994Z,37.67
2018-12-31T20:44:02.936Z,37.10
2018-12-31T20:46:29.652Z,38.17
2018-12-31T20:48:56.792Z,40.50
2018-12-31T20:51:23.499Z,39.93
2018-12-31T20:53:50.285Z,40.83
2018-12-31T20:56:17.012Z,38.90
2018-12-31T20:58:43.728Z,36.73
2018-12-31T21:01:10.453Z,41.23
2018-12-31T21:03:37.176Z,43.20
2018-12-31T21:06:03.889Z,40.83
2018-12-31T21:08:30.680Z,39.00
2018-12-31T21:10:57.403Z,42.30
2018-12-31T21:13:24.600Z,45.10
2018-12-31T21:15:51.327Z,43.97
2018-12-31T21:18:18.055Z,46.27
2018-12-31T21:20:44.767Z,48.00
2018-12-31T21:23:11.587Z,47.23
2018-12-31T21:25:38.323Z,47.23
2018-12-31T21:28:05.045Z,50.30
2018-12-31T21:30:31.769Z,50.67
2018-12-31T21:32:58.495Z,49.53
2018-12-31T21:35:25.824Z,44.93
2018-12-31T21:37:52.660Z,44.27
2018-12-31T21:40:20.118Z,41.90
2018-12-31T21:42:46.835Z,43.80
2018-12-31T21:45:13.570Z,45.33
2018-12-31T21:47:40.280Z,53.90
2018-12-31T21:50:07.933Z,50.50
2018-12-31T21:52:34.655Z,52.03
2018-12-31T21:55:01.392Z,53.57
2018-12-31T21:57:28.200Z,55.50
2018-12-31T21:59:55.015Z,51.43
2018-12-31T22:02:21.736Z,53.67
2018-12-31T22:04:48.567Z,58.37
2018-12-31T22:07:15.291Z,60.43
2018-12-31T22:09:42.019Z,57.53
2018-12-31T22:12:08.743Z,56.53
2018-12-31T22:14:35.536Z,62.13
2018-12-31T22:17:02.252Z,59.23
2018-12-31T22:19:28.974Z,58.13
2018-12-31T22:21:55.994Z,57.30
2018-12-31T22:24:23.251Z,59.57
2018-12-31T22:26:51.622Z,61.27
2018-12-31T22:29:18.616Z,60.60
2018-12-31T22:31:45.361Z,67.80
2018-12-31T22:34:12.071Z,65.60
2018-12-31T22:36:39.011Z,64.70
2018-12-31T22:39:05.835Z,72.37
2018-12-31T22:41:32.568Z,72.43
2018-12-31T22:43:59.317Z,70.57
2018-12-31T22:46:26.047Z,77.40
2018-12-31T22:48:52.771Z,68.30
2018-12-31T22:51:19.692Z,79.50
2018-12-31T22:53:46.428Z,80.67
2018-12-31T22:56:13.199Z,93.33
2018-12-31T22:58:39.920Z,86.33
2018-12-31T23:01:06.869Z,83.17
2018-12-31T23:03:33.591Z,77.33
2018-12-31T23:06:00.836Z,84.37
2018-12-31T23:08:27.676Z,88.83
2018-12-31T23:10:54.511Z,99.90
2018-12-31T23:13:21.588Z,238.33
2018-12-31T23:15:48.313Z,399.73
2018-12-31T23:18:15.040Z,545.93
2018-12-31T23:20:42.322Z,530.80
2018-12-31T23:23:09.079Z,738.57
2018-12-31T23:25:35.832Z,649.77
2018-12-31T23:28:02.815Z,458.47
2018-12-31T23:30:30.013Z,433.03
2018-12-31T23:32:56.743Z,439.97
2018-12-31T23:35:23.599Z,390.67
2018-12-31T23:37:50.339Z,416.80
2018-12-31T23:40:17.076Z,435.00
2018-12-31T23:42:43.817Z,404.17
2018-12-31T23:45:11.929Z,280.33
2018-12-31T23:47:38.701Z,216.33
2018-12-31T23:50:07.504Z,187.90
2018-12-31T23:52:34.220Z,190.33
2018-12-31T23:55:01.039Z,237.60
2018-12-31T23:57:27.768Z,237.13
2018-12-31T23:59:54.500Z,158.63
